Time,TemperatureF,DewpointF,PressureIn,WindDirection,WindDirectionDegrees,WindSpeedMPH,WindSpeedGustMPH,Humidity,HourlyPrecipIn,Conditions,Clouds,dailyrainin,SoftwareType,DateUTC
2013-10-02 00:14:00,65.0,62.0,30.15,West,277,0.0,0.0,89,0.00,,,0.00,,2013-10-02 04:14:00,
2013-10-02 00:24:00,64.0,61.0,30.15,West,277,0.0,0.0,89,0.00,,,0.00,,2013-10-02 04:24:00,
2013-10-02 00:54:00,64.0,61.0,30.16,West,277,0.0,0.0,90,0.00,,,0.00,,2013-10-02 04:54:00,
2013-10-02 01:04:00,64.0,61.0,30.16,West,277,0.0,0.0,90,0.00,,,0.00,,2013-10-02 05:04:00,
2013-10-02 01:13:00,64.0,61.0,30.16,West,277,0.0,0.0,90,0.00,,,0.00,,2013-10-02 05:13:00,
2013-10-02 01:23:00,64.0,61.0,30.16,West,277,0.0,0.0,90,0.00,,,0.00,,2013-10-02 05:23:00,
2013-10-02 06:23:00,59.0,58.0,30.16,West,277,0.0,0.0,95,0.00,,,0.00,,2013-10-02 10:23:00,
2013-10-02 06:53:00,59.0,58.0,30.17,West,277,0.0,0.0,95,0.00,,,0.00,,2013-10-02 10:53:00,
2013-10-02 07:22:00,59.0,58.0,30.18,West,277,0.0,0.0,96,0.00,,,0.00,,2013-10-02 11:22:00,
2013-10-02 07:52:00,60.0,59.0,30.18,West,277,0.0,0.0,96,0.00,,,0.00,,2013-10-02 11:52:00,
2013-10-02 08:12:00,60.0,59.0,30.19,West,277,0.0,0.0,96,0.00,,,0.00,,2013-10-02 12:12:00,
2013-10-02 08:22:00,60.0,59.0,30.19,West,277,0.0,0.0,97,0.00,,,0.00,,2013-10-02 12:22:00,
2013-10-02 08:52:00,60.0,59.0,30.20,West,277,0.0,0.0,97,0.00,,,0.00,,2013-10-02 12:52:00,
2013-10-02 09:22:00,61.0,60.0,30.21,West,277,0.0,0.0,97,0.00,,,0.00,,2013-10-02 13:22:00,
2013-10-02 09:52:00,62.0,61.0,30.22,West,277,0.0,0.0,98,0.00,,,0.00,,2013-10-02 13:52:00,
2013-10-02 10:21:00,63.0,62.0,30.22,West,277,0.0,0.0,98,0.00,,,0.00,,2013-10-02 14:21:00,
2013-10-02 10:52:00,64.0,63.0,30.21,West,277,0.0,0.0,98,0.00,,,0.00,,2013-10-02 14:52:00,
2013-10-02 11:22:00,66.0,65.0,30.21,ENE,68,0.0,1.0,98,0.00,,,0.00,,2013-10-02 15:22:00,
2013-10-02 11:54:00,67.0,66.0,30.21,North,9,0.0,1.0,97,0.00,,,0.00,,2013-10-02 15:54:00,
2013-10-02 12:23:00,69.0,66.0,30.19,NW,324,0.0,0.0,90,0.00,,,0.00,,2013-10-02 16:23:00,
2013-10-02 12:53:00,72.0,65.0,30.19,NW,324,0.0,1.0,78,0.00,,,0.00,,2013-10-02 16:53:00,
2013-10-02 13:23:00,75.0,66.0,30.18,WNW,297,0.0,1.0,74,0.00,,,0.00,,2013-10-02 17:23:00,
2013-10-02 13:42:00,76.0,66.0,30.17,NW,306,1.0,2.0,72,0.00,,,0.00,,2013-10-02 17:42:00,
2013-10-02 13:52:00,78.0,67.0,30.16,NW,305,0.0,1.0,69,0.00,,,0.00,,2013-10-02 17:52:00,
2013-10-02 14:12:00,79.0,67.0,30.16,NW,305,0.0,0.0,67,0.00,,,0.00,,2013-10-02 18:12:00,
2013-10-02 14:22:00,79.0,64.0,30.15,NW,305,0.0,2.0,61,0.00,,,0.00,,2013-10-02 18:22:00,
2013-10-02 14:52:00,81.0,64.0,30.14,NW,304,0.0,2.0,56,0.00,,,0.00,,2013-10-02 18:52:00,
2013-10-02 15:22:00,82.0,67.0,30.13,NW,304,0.0,0.0,60,0.00,,,0.00,,2013-10-02 19:22:00,
2013-10-02 15:52:00,80.0,66.0,30.13,NW,304,0.0,0.0,63,0.00,,,0.00,,2013-10-02 19:52:00,
2013-10-02 16:22:00,81.0,67.0,30.12,NW,304,0.0,0.0,62,0.00,,,0.00,,2013-10-02 20:22:00,
2013-10-02 16:52:00,82.0,66.0,30.11,WNW,303,0.0,0.0,59,0.00,,,0.00,,2013-10-02 20:52:00,
2013-10-02 17:22:00,82.0,67.0,30.11,WNW,303,0.0,0.0,61,0.00,,,0.00,,2013-10-02 21:22:00,
2013-10-02 17:55:00,80.0,66.0,30.11,WNW,303,0.0,0.0,63,0.00,,,0.00,,2013-10-02 21:55:00,
2013-10-02 18:24:00,79.0,65.0,30.10,WNW,303,0.0,0.0,63,0.00,,,0.00,,2013-10-02 22:24:00,
2013-10-02 18:54:00,78.0,67.0,30.11,WNW,303,0.0,0.0,68,0.00,,,0.00,,2013-10-02 22:54:00,
2013-10-02 19:22:00,77.0,67.0,30.11,WNW,303,0.0,0.0,71,0.00,,,0.00,,2013-10-02 23:22:00,
2013-10-02 19:52:00,75.0,65.0,30.11,WNW,303,0.0,0.0,71,0.00,,,0.00,,2013-10-02 23:52:00,
2013-10-02 20:22:00,74.0,64.0,30.11,WNW,303,0.0,0.0,72,0.00,,,0.00,,2013-10-03 00:22:00,
2013-10-02 20:52:00,73.0,65.0,30.11,WNW,303,0.0,0.0,76,0.00,,,0.00,,2013-10-03 00:52:00,
2013-10-02 21:11:00,72.0,65.0,30.12,WNW,303,0.0,0.0,78,0.00,,,0.00,,2013-10-03 01:11:00,
2013-10-02 21:23:00,72.0,65.0,30.12,WNW,303,0.0,0.0,79,0.00,,,0.00,,2013-10-03 01:23:00,
2013-10-02 21:42:00,71.0,65.0,30.13,WNW,303,0.0,0.0,80,0.00,,,0.00,,2013-10-03 01:42:00,
2013-10-02 21:52:00,71.0,65.0,30.13,WNW,303,0.0,0.0,81,0.00,,,0.00,,2013-10-03 01:52:00,
2013-10-02 22:22:00,70.0,65.0,30.14,WNW,303,0.0,0.0,84,0.00,,,0.00,,2013-10-03 02:22:00,
2013-10-02 22:32:00,70.0,65.0,30.14,WNW,303,0.0,0.0,84,0.00,,,0.00,,2013-10-03 02:32:00,
2013-10-02 22:42:00,70.0,65.0,30.14,WNW,303,0.0,0.0,84,0.00,,,0.00,,2013-10-03 02:42:00,
2013-10-02 23:22:00,69.0,65.0,30.15,WNW,303,0.0,0.0,87,0.00,,,0.00,,2013-10-03 03:22:00,
2013-10-02 23:44:00,69.0,65.0,30.15,WNW,303,0.0,0.0,87,0.00,,,0.00,,2013-10-03 03:44:00,
2013-10-02 23:54:00,69.0,66.0,30.15,WNW,303,0.0,0.0,89,0.00,,,0.00,,2013-10-03 03:54:00,